• Join FlightAware (Why Join?)
  • Login
  • US Flag 
09:06PM EDT


 

Airport Tracker/Info


-or-


 

Live Flight TrackerFlight Track Log ✈ SWA1181 ✈ 20-Jan-2014 ✈ KPDX - KSMF

Flight Track Log - Related Links

Times and Time Zones

All times are in EST time to prevent confusion due to time zone crossing. See the SWA1181 flight status page for this flight to view local times or setup timezone preferences in your user account.

Time Position Orientation Groundspeed Altitude Reporting Facility
EST Latitude Longitude Course Direction KTS MPH feet Rate Location/Type
09:58AM 45.5806 -122.5633 103° East 154 177 1,000  Level Seattle Center
09:59AM 45.5722 -122.5111 103° East 166 191 3,100 2,280 Climbing Seattle Center
09:59AM 45.5736 -122.5089 48° Northeast 155 178 3,200 1,920 Climbing Seattle Center
10:00AM 45.5600 -122.4297 104° East 231 266 5,100 1,980 Climbing Seattle Center
10:00AM 45.5600 -122.4278 90° East 216 249 5,200 3,060 Climbing Seattle Center
10:01AM 45.5028 -122.3822 151° Southeast 282 325 8,200 3,300 Climbing Seattle Center
10:01AM 45.4986 -122.3833 191° South 271 312 8,600 3,000 Climbing Seattle Center
10:02AM 45.4161 -122.3864 181° South 298 343 11,400 3,120 Climbing Seattle Center
10:03AM 45.3192 -122.3881 181° South 346 398 14,900 3,120 Climbing Seattle Center
10:04AM 45.2178 -122.3869 180° South 362 417 17,800 2,640 Climbing Seattle Center
10:05AM 45.1261 -122.3900 181° South 370 426 20,300 2,580 Climbing Seattle Center
10:06AM 45.0153 -122.3903 180° South 386 444 23,100 2,520 Climbing Seattle Center
10:07AM 44.9000 -122.3808 177° South 405 466 25,500 2,220 Climbing Seattle Center
10:09AM 44.7797 -122.3481 169° South 423 487 27,700 1,980 Climbing Seattle Center
10:10AM 44.6589 -122.3172 170° South 435 501 29,500 1,740 Climbing Seattle Center
10:11AM 44.5336 -122.2867 170° South 448 516 31,300 1,980 Climbing Seattle Center
10:12AM 44.4103 -122.2550 170° South 450 518 33,600 2,040 Climbing Seattle Center
10:13AM 44.2872 -122.2258 170° South 447 514 35,500 1,320 Climbing Seattle Center
10:14AM 44.1650 -122.1964 170° South 446 513 36,400 960 Climbing Seattle Center
10:15AM 44.0375 -122.1653 170° South 458 527 37,500 1,260 Climbing Seattle Center
10:16AM 43.9114 -122.1353 170° South 459 528 39,000 720 Climbing Seattle Center
10:17AM 43.7867 -122.1056 170° South 454 522 39,000  Level Seattle Center
10:18AM 43.6619 -122.0775 171° South 453 521 39,000  Level Seattle Center
10:19AM 43.5372 -122.0597 174° South 450 518 39,000  Level Seattle Center
10:20AM 43.4136 -122.0469 176° South 444 511 39,000  Level Seattle Center
10:21AM 43.2886 -122.0328 175° South 448 516 39,000  Level Seattle Center
10:22AM 43.1619 -122.0186 175° South 446 513 39,000  Level Seattle Center
10:23AM 43.0369 -122.0050 175° South 449 517 39,000  Level Seattle Center
10:24AM 42.9133 -121.9903 175° South 447 514 39,000  Level Seattle Center
10:25AM 42.7878 -121.9783 176° South 451 519 39,000  Level Seattle Center
10:26AM 42.6639 -121.9633 175° South 447 514 39,000  Level Seattle Center
10:27AM 42.5144 -121.9472 175° South 450 518 39,000  Level Seattle Center
10:28AM 42.3908 -121.9353 176° South 446 513 39,000  Level Seattle Center
10:29AM 42.2672 -121.9222 176° South 444 511 39,000  Level Seattle Center
10:30AM 42.1442 -121.9094 176° South 439 505 39,000  Level Seattle Center
10:31AM 42.0244 -121.8917 174° South 443 510 39,000  Level Seattle Center
10:32AM 41.9144 -121.8858 178° South 441 507 39,000  Level Seattle Center
10:33AM 41.7911 -121.8731 176° South 441 507 39,000  Level Seattle Center
10:34AM 41.6661 -121.8594 175° South 447 514 39,000  Level Seattle Center
10:35AM 41.5181 -121.8450 176° South 446 513 39,000  Level Seattle Center
10:36AM 41.3933 -121.8336 176° South 448 516 39,000  Level Seattle Center
10:37AM 41.2906 -121.8181 174° South 451 519 39,000  Level Oakland Center
10:38AM 41.1653 -121.8058 176° South 451 519 39,000  Level Oakland Center
10:39AM 41.0297 -121.7936 176° South 433 498 39,000 -720 Level Oakland Center
10:40AM 40.9064 -121.7806 175° South 439 505 37,600 -1,500 Descending Oakland Center
10:41AM 40.7836 -121.7669 175° South 441 507 36,000 -1,320 Descending Oakland Center
10:42AM 40.6592 -121.7558 176° South 444 511 35,000 -1,920 Descending Oakland Center
10:43AM 40.5347 -121.7428 175° South 445 512 32,100 -2,640 Descending Oakland Center
10:44AM 40.4128 -121.7297 175° South 440 506 29,700 -2,280 Descending Oakland Center
10:45AM 40.2947 -121.7178 176° South 428 493 27,500 -2,220 Descending Oakland Center
10:46AM 40.1806 -121.7069 176° South 413 475 25,300 -2,340 Descending Oakland Center
10:47AM 40.0494 -121.6944 176° South 395 455 22,800 -2,220 Descending Oakland Center
10:48AM 39.9447 -121.6842 176° South 381 438 20,800 -1,980 Descending Oakland Center
10:49AM 39.8428 -121.6744 176° South 370 426 18,800 -1,920 Descending Oakland Center
10:50AM 39.7442 -121.6656 176° South 359 413 17,000 -1,980 Descending Oakland Center
10:51AM 39.6475 -121.6556 175° South 351 404 14,800 -2,160 Descending Oakland Center
10:52AM 39.5511 -121.6461 176° South 348 400 12,700 -1,380 Descending Oakland Center
10:53AM 39.4644 -121.6394 177° South 341 392 12,000 -720 Descending Oakland Center
10:54AM 39.3747 -121.6519 186° South 328 377 11,300 -900 Descending Oakland Center
10:55AM 39.2875 -121.6647 186° South 319 367 10,200 -1,260 Descending Oakland Center
10:56AM 39.1944 -121.6769 186° South 290 334 8,800 -1,140 Descending Oakland Center
10:57AM 39.1181 -121.6886 187° South 279 321 7,900 -840 Descending Oakland Center
10:58AM 39.0408 -121.6989 186° South 279 321 7,100 -840 Descending Oakland Center
10:59AM 38.9672 -121.7097 187° South 272 313 6,300 -840 Descending Oakland Center
11:00AM 38.8942 -121.7047 177° South 267 307 5,400 -840 Descending Oakland Center
11:01AM 38.8233 -121.6994 177° South 259 298 4,700 -780 Descending Oakland Center
11:02AM 38.7600 -121.6950 177° South 233 268 3,900 -840 Descending Oakland Center
11:03AM 38.6986 -121.6906 177° South 225 259 3,000 -480 Descending Oakland Center
11:04AM 38.6397 -121.6864 177° South 216 249 3,000 -60 Level Oakland Center
11:05AM 38.5833 -121.6828 177° South 208 239 2,900 -360 Descending Oakland Center
11:06AM 38.5653 -121.6308 114° Southeast 198 228 2,300 -780 Descending Oakland Center
11:07AM 38.6119 -121.6056 23° Northeast 155 178 1,400 -780 Descending Oakland Center
11:08AM 38.6500 -121.6000 North 130 150 800 -720 Descending Northern Cal TRACON
11:09AM 38.6833 -121.6000 360° North 126 145 100 -720 Descending Northern Cal TRACON